CheckWX is a tool to help pilots better visualize weather data.  It is not intended as a substitute for an official pre-flight weather briefing.

02:09:48 UTC

KLWV METAR
Lawrenceville-Vincennes International Airport
Lawrenceville, Illinois, USA
Current

17 mins ago

KLWV 180153Z AUTO 28010KT 7SM BKN015 BKN024 OVC032 02/M01 A2992 RMK AO2 SLP135 T00171011
Observed
Feb-18 @ 01:53 UTC
Wind
  • 280° at 10 KTS
Visibility
7 SM
Flight Rules
MVFR
Cloud Levels
  • Broken at 1,500' AGL
  • Broken at 2,400' AGL
  • Overcast at 3,200' AGL
Temperature
C / 36°F
Dewpoint
-1°C / 30°F
Humidity
81%
Altimeter
29.92" Hg
Pressure
1013.5 hPa
Previous

1 hour ago

KLWV 180053Z AUTO 28008KT 6SM BR OVC017 02/M01 A2989 RMK AO2 SLP127 T00171006
Observed
Feb-18 @ 00:53 UTC
Wind
  • 280° at 8 KTS
Visibility
6 SM
Flight Rules
MVFR
Conditions
Mist
Cloud Levels
  • Overcast at 1,700' AGL
Temperature
C / 36°F
Dewpoint
-1°C / 30°F
Humidity
81%
Altimeter
29.89" Hg
Pressure
1012.7 hPa
Previous

2 hours ago

KLWV 172353Z AUTO 28011KT 7SM OVC015 02/M01 A2986 RMK AO2 SLP117 T00221011 10022 20011 53022
Observed
Feb-17 @ 23:53 UTC
Wind
  • 280° at 11 KTS
Visibility
7 SM
Flight Rules
MVFR
Cloud Levels
  • Overcast at 1,500' AGL
Temperature
C / 36°F
Dewpoint
-1°C / 30°F
Humidity
81%
Altimeter
29.86" Hg
Pressure
1011.7 hPa